createdAt,value
2022-09-16T00:00:48.778Z,6.32
2022-09-16T00:03:16.413Z,5.07
2022-09-16T00:05:44.128Z,7.90
2022-09-16T00:08:10.943Z,9.20
2022-09-16T00:10:37.584Z,6.57
2022-09-16T00:13:04.406Z,8.02
2022-09-16T00:15:31.000Z,5.95
2022-09-16T00:17:57.607Z,8.27
2022-09-16T00:20:24.168Z,6.32
2022-09-16T00:22:50.753Z,10.70
2022-09-16T00:25:17.446Z,8.25
2022-09-16T00:27:44.069Z,6.32
2022-09-16T00:30:10.936Z,7.15
2022-09-16T00:32:37.546Z,4.78
2022-09-16T00:35:04.483Z,8.25
2022-09-16T00:37:32.961Z,8.25
2022-09-16T00:39:59.622Z,10.75
2022-09-16T00:42:26.222Z,14.57
2022-09-16T00:44:57.375Z,6.95
2022-09-16T00:47:31.484Z,6.25
2022-09-16T00:50:02.343Z,7.05
2022-09-16T00:52:28.944Z,7.95
2022-09-16T00:54:55.569Z,10.85
2022-09-16T00:57:22.159Z,9.55
2022-09-16T00:59:51.593Z,8.98
2022-09-16T01:02:19.055Z,7.35
2022-09-16T01:05:19.044Z,5.72
2022-09-16T01:07:47.416Z,7.72
2022-09-16T01:10:15.284Z,8.18
2022-09-16T01:12:43.064Z,11.55
2022-09-16T01:15:10.883Z,9.05
2022-09-16T01:18:02.089Z,7.78
2022-09-16T01:21:00.982Z,6.90
2022-09-16T01:23:30.378Z,9.18
2022-09-16T01:26:09.034Z,7.32
2022-09-16T01:29:30.295Z,11.85
2022-09-16T01:31:59.760Z,5.78
2022-09-16T01:35:10.596Z,9.95
2022-09-16T01:37:57.990Z,5.47
2022-09-16T01:41:02.003Z,10.38
2022-09-16T01:43:43.450Z,6.47
2022-09-16T01:46:16.179Z,4.78
2022-09-16T01:48:56.733Z,8.00
2022-09-16T01:51:40.801Z,6.20
2022-09-16T01:54:36.901Z,7.03
2022-09-16T01:57:18.804Z,7.15
2022-09-16T01:59:57.289Z,8.13
2022-09-16T02:02:43.889Z,10.27
2022-09-16T02:05:13.918Z,5.63
2022-09-16T02:07:42.040Z,4.93
2022-09-16T02:10:36.447Z,7.03
2022-09-16T02:13:08.158Z,7.07
2022-09-16T02:15:34.855Z,6.78
2022-09-16T02:18:04.446Z,5.85
2022-09-16T02:20:31.743Z,5.68
2022-09-16T02:23:15.890Z,4.03
2022-09-16T02:25:42.595Z,8.57
2022-09-16T02:28:13.137Z,10.48
2022-09-16T02:33:10.646Z,5.45
2022-09-16T02:35:37.262Z,9.20
2022-09-16T02:38:18.390Z,11.35
2022-09-16T02:40:48.556Z,7.20
2022-09-16T02:43:15.262Z,7.30
2022-09-16T02:46:15.979Z,9.73
2022-09-16T02:51:21.017Z,4.65
2022-09-16T02:53:56.495Z,7.72
2022-09-16T02:56:37.434Z,11.35
2022-09-16T02:59:05.743Z,10.45
2022-09-16T03:01:33.919Z,9.23
2022-09-16T03:04:00.698Z,7.15
2022-09-16T03:06:28.876Z,6.88
2022-09-16T03:08:58.146Z,10.07
2022-09-16T03:11:40.205Z,10.88
2022-09-16T03:14:44.264Z,7.80
2022-09-16T03:17:51.794Z,11.35
2022-09-16T03:20:40.571Z,5.95
2022-09-16T03:23:35.417Z,7.10
2022-09-16T03:26:11.374Z,6.47
2022-09-16T03:28:46.544Z,4.35
2022-09-16T03:31:26.443Z,6.03
2022-09-16T03:34:05.052Z,9.38
2022-09-16T03:36:34.334Z,6.55
2022-09-16T03:39:01.407Z,5.90
2022-09-16T03:41:29.244Z,4.90
2022-09-16T03:44:00.299Z,6.00
2022-09-16T03:46:30.293Z,7.97
2022-09-16T03:48:57.087Z,8.25
2022-09-16T03:51:24.226Z,7.10
2022-09-16T03:53:53.940Z,8.68
2022-09-16T03:56:20.548Z,4.77
2022-09-16T03:58:50.483Z,9.93
2022-09-16T04:01:17.140Z,5.15
2022-09-16T04:03:43.805Z,5.07
2022-09-16T04:06:10.387Z,3.95
2022-09-16T04:08:37.577Z,9.23
2022-09-16T04:11:07.980Z,10.63
2022-09-16T04:13:35.101Z,11.10
2022-09-16T04:16:04.671Z,11.77
2022-09-16T04:18:31.849Z,9.95
2022-09-16T04:20:59.070Z,14.18
2022-09-16T04:23:26.553Z,11.52
2022-09-16T04:25:57.230Z,7.07
2022-09-16T04:28:23.894Z,8.38
2022-09-16T04:30:50.710Z,10.73
2022-09-16T04:33:17.416Z,13.65
2022-09-16T04:35:44.003Z,10.88
2022-09-16T04:38:10.550Z,8.60
2022-09-16T04:40:39.589Z,8.18
2022-09-16T04:43:06.261Z,9.48
2022-09-16T04:45:32.866Z,10.35
2022-09-16T04:47:59.556Z,13.02
2022-09-16T04:50:26.213Z,12.35
2022-09-16T04:52:52.841Z,11.85
2022-09-16T04:55:22.879Z,9.18
2022-09-16T04:57:50.305Z,9.98
2022-09-16T05:00:16.984Z,10.80
2022-09-16T05:02:46.723Z,6.45
2022-09-16T05:05:13.422Z,9.70
2022-09-16T05:07:40.053Z,9.38
2022-09-16T05:10:07.026Z,13.65
2022-09-16T05:12:33.637Z,10.60
2022-09-16T05:15:00.234Z,10.32
2022-09-16T05:17:49.755Z,14.52
2022-09-16T05:20:15.741Z,6.90
2022-09-16T05:22:42.377Z,12.00
2022-09-16T05:25:09.317Z,10.00
2022-09-16T05:27:36.069Z,10.63
2022-09-16T05:30:02.697Z,13.02
2022-09-16T05:32:29.311Z,13.80
2022-09-16T05:34:56.174Z,18.15
2022-09-16T05:37:22.760Z,15.95
2022-09-16T05:39:49.371Z,15.30
2022-09-16T05:42:15.988Z,15.02
2022-09-16T05:44:42.546Z,10.20
2022-09-16T05:47:09.252Z,12.45
2022-09-16T05:49:37.065Z,10.20
2022-09-16T05:52:03.694Z,17.75
2022-09-16T05:54:31.357Z,9.57
2022-09-16T05:56:57.914Z,10.48
2022-09-16T05:59:24.543Z,8.57
2022-09-16T06:01:51.221Z,11.05
2022-09-16T06:04:17.889Z,11.02
2022-09-16T06:06:45.686Z,9.00
2022-09-16T06:09:17.940Z,11.55
2022-09-16T06:11:46.066Z,7.72
2022-09-16T06:14:13.119Z,8.68
2022-09-16T06:16:39.717Z,8.52
2022-09-16T06:19:12.930Z,5.25
2022-09-16T06:21:39.741Z,12.82
2022-09-16T06:24:10.001Z,7.50
2022-09-16T06:26:38.434Z,8.55
2022-09-16T06:29:06.143Z,8.93
2022-09-16T06:31:32.884Z,11.38
2022-09-16T06:33:59.483Z,8.93
2022-09-16T06:36:29.563Z,8.75
2022-09-16T06:38:56.235Z,12.43
2022-09-16T06:41:23.269Z,10.98
2022-09-16T06:43:51.742Z,7.80
2022-09-16T06:46:20.429Z,13.07
2022-09-16T06:48:48.301Z,10.38
2022-09-16T06:51:19.642Z,9.05
2022-09-16T06:53:46.731Z,10.38
2022-09-16T06:56:14.383Z,5.32
2022-09-16T06:58:42.298Z,16.00
2022-09-16T07:01:10.961Z,7.38
2022-09-16T07:03:41.441Z,7.00
2022-09-16T07:06:08.196Z,5.75
2022-09-16T07:08:35.596Z,6.57
2022-09-16T07:11:11.371Z,7.03
2022-09-16T07:13:38.084Z,4.93
2022-09-16T07:16:13.382Z,6.90
2022-09-16T07:18:40.915Z,6.82
2022-09-16T07:21:09.941Z,8.55
2022-09-16T07:23:37.037Z,6.57
2022-09-16T07:26:04.424Z,7.63
2022-09-16T07:28:31.339Z,9.38
2022-09-16T07:31:04.082Z,9.50
2022-09-16T07:33:32.137Z,7.60
2022-09-16T07:36:00.186Z,5.72
2022-09-16T07:38:27.343Z,6.50
2022-09-16T07:40:53.906Z,8.85
2022-09-16T07:43:20.604Z,6.95
2022-09-16T07:45:47.253Z,5.50
2022-09-16T07:48:13.875Z,6.93
2022-09-16T07:50:40.451Z,10.18
2022-09-16T07:53:07.041Z,6.05
2022-09-16T07:55:35.230Z,6.72
2022-09-16T07:58:01.851Z,5.40
2022-09-16T08:00:28.412Z,5.40
2022-09-16T08:02:57.347Z,5.72
2022-09-16T08:05:23.909Z,6.47
2022-09-16T08:07:50.490Z,6.10
2022-09-16T08:10:17.117Z,5.28
2022-09-16T08:12:47.145Z,7.32
2022-09-16T08:15:14.332Z,5.45
2022-09-16T08:17:40.951Z,7.15
2022-09-16T08:20:07.885Z,9.35
2022-09-16T08:22:34.682Z,11.10
2022-09-16T08:25:01.270Z,8.05
2022-09-16T08:27:27.884Z,10.32
2022-09-16T08:29:54.478Z,6.13
2022-09-16T08:32:21.085Z,6.35
2022-09-16T08:34:49.016Z,11.75
2022-09-16T08:37:15.698Z,8.43
2022-09-16T08:39:42.262Z,8.35
2022-09-16T08:42:27.258Z,12.57
2022-09-16T08:45:01.649Z,9.60
2022-09-16T08:47:54.884Z,9.55
2022-09-16T08:50:29.058Z,5.55
2022-09-16T08:52:57.637Z,16.45
2022-09-16T08:55:36.764Z,10.43
2022-09-16T08:58:20.697Z,10.05
2022-09-16T09:01:05.254Z,7.38
2022-09-16T09:03:38.355Z,8.50
2022-09-16T09:06:20.693Z,6.53
2022-09-16T09:08:58.368Z,5.78
2022-09-16T09:11:35.787Z,6.28
2022-09-16T09:14:06.968Z,3.05
2022-09-16T09:16:48.501Z,4.00
2022-09-16T09:19:55.428Z,8.75
2022-09-16T09:22:29.482Z,4.85
2022-09-16T09:25:14.902Z,6.75
2022-09-16T09:27:44.669Z,5.80
2022-09-16T09:30:26.024Z,6.93
2022-09-16T09:33:44.907Z,7.30
2022-09-16T09:36:32.183Z,4.50
2022-09-16T09:39:12.945Z,5.28
2022-09-16T09:41:48.841Z,4.70
2022-09-16T09:44:46.325Z,4.40
2022-09-16T09:47:20.063Z,11.90
2022-09-16T09:49:53.846Z,5.88
2022-09-16T09:52:22.302Z,8.85
2022-09-16T09:54:50.861Z,4.25
2022-09-16T09:57:34.634Z,7.53
2022-09-16T10:00:11.815Z,3.65
2022-09-16T10:02:40.103Z,7.28
2022-09-16T10:05:09.791Z,3.53
2022-09-16T10:07:37.176Z,7.72
2022-09-16T10:10:13.744Z,5.03
2022-09-16T10:12:40.412Z,5.93
2022-09-16T10:15:17.685Z,4.43
2022-09-16T10:17:48.944Z,4.10
2022-09-16T10:20:29.779Z,3.80
2022-09-16T10:23:02.318Z,4.50
2022-09-16T10:25:30.588Z,6.80
2022-09-16T10:28:00.101Z,3.85
2022-09-16T10:30:43.410Z,3.70
2022-09-16T10:33:15.502Z,3.92
2022-09-16T10:35:51.844Z,6.15
2022-09-16T10:38:19.276Z,4.55
2022-09-16T10:40:53.682Z,5.32
2022-09-16T10:43:20.285Z,5.85
2022-09-16T10:45:49.714Z,4.90
2022-09-16T10:48:18.669Z,3.77
2022-09-16T10:51:00.999Z,7.18
2022-09-16T10:53:37.636Z,5.80
2022-09-16T10:56:19.373Z,5.28
2022-09-16T10:58:45.967Z,4.20
2022-09-16T11:01:44.006Z,3.97
2022-09-16T11:04:39.047Z,4.13
2022-09-16T11:07:11.580Z,5.85
2022-09-16T11:09:50.110Z,4.25
2022-09-16T11:12:30.203Z,3.03
2022-09-16T11:17:48.287Z,3.60
2022-09-16T11:20:48.993Z,4.43
2022-09-16T11:23:37.783Z,1.98
2022-09-16T11:26:12.016Z,4.35
2022-09-16T11:29:16.633Z,4.38
2022-09-16T11:32:17.941Z,2.10
2022-09-16T11:35:17.791Z,2.88
2022-09-16T11:38:05.845Z,0.80
2022-09-16T11:41:00.281Z,3.65
2022-09-16T11:43:48.720Z,1.95
2022-09-16T11:46:30.082Z,4.38
2022-09-16T11:49:14.853Z,4.25
2022-09-16T11:51:50.289Z,2.80
2022-09-16T11:54:46.009Z,2.90
2022-09-16T11:57:22.531Z,4.22
2022-09-16T11:59:53.537Z,2.67
2022-09-16T12:02:53.587Z,2.22
2022-09-16T12:05:35.197Z,3.15
2022-09-16T12:08:22.747Z,3.85
2022-09-16T12:11:00.596Z,3.40
2022-09-16T12:13:42.984Z,4.80
2022-09-16T12:16:12.815Z,3.35
2022-09-16T12:18:42.985Z,2.08
2022-09-16T12:21:28.401Z,7.65
2022-09-16T12:23:59.877Z,2.03
2022-09-16T12:26:33.639Z,3.63
2022-09-16T12:29:12.031Z,2.80
2022-09-16T12:32:14.465Z,2.08
2022-09-16T12:34:49.198Z,9.95
2022-09-16T12:37:41.236Z,2.67
2022-09-16T12:40:24.109Z,3.05
2022-09-16T12:43:05.786Z,3.63
2022-09-16T12:46:13.240Z,5.70
2022-09-16T12:49:02.018Z,3.20
2022-09-16T12:51:34.749Z,1.88
2022-09-16T12:54:04.402Z,4.30
2022-09-16T12:56:43.813Z,3.70
2022-09-16T12:59:35.301Z,4.47
2022-09-16T13:02:28.063Z,5.60
2022-09-16T13:04:57.049Z,3.45
2022-09-16T13:07:26.060Z,2.67
2022-09-16T13:10:04.085Z,2.13
2022-09-16T13:12:46.043Z,5.63
2022-09-16T13:15:24.038Z,2.03
2022-09-16T13:17:53.077Z,3.08
2022-09-16T13:20:48.065Z,4.57
2022-09-16T13:23:18.283Z,1.27
2022-09-16T13:28:35.132Z,1.70
2022-09-16T13:31:14.279Z,2.85
2022-09-16T13:33:43.517Z,2.22
2022-09-16T13:36:22.348Z,2.42
2022-09-16T13:38:50.836Z,3.15
2022-09-16T13:41:36.269Z,2.80
2022-09-16T13:44:24.086Z,1.00
2022-09-16T13:46:50.681Z,2.25
2022-09-16T13:49:27.679Z,3.40
2022-09-16T13:51:54.253Z,2.35
2022-09-16T13:54:25.855Z,3.53
2022-09-16T13:56:52.397Z,4.38
2022-09-16T13:59:27.848Z,3.13
2022-09-16T14:02:04.498Z,2.47
2022-09-16T14:04:57.405Z,2.03
2022-09-16T14:07:33.089Z,2.45
2022-09-16T14:10:20.836Z,3.35
2022-09-16T14:12:59.512Z,2.65
2022-09-16T14:15:26.339Z,1.20
2022-09-16T14:17:56.945Z,2.08
2022-09-16T14:20:23.815Z,3.85
2022-09-16T14:23:01.373Z,1.25
2022-09-16T14:25:36.100Z,1.70
2022-09-16T14:28:23.894Z,0.77
2022-09-16T14:31:00.940Z,1.90
2022-09-16T14:33:35.190Z,1.20
2022-09-16T14:36:07.755Z,0.40
2022-09-16T14:38:46.710Z,1.35
2022-09-16T14:41:19.692Z,1.75
2022-09-16T14:43:46.267Z,1.85
2022-09-16T14:46:12.899Z,1.92
2022-09-16T14:48:39.509Z,2.55
2022-09-16T14:51:23.504Z,2.25
2022-09-16T14:54:13.578Z,1.67
2022-09-16T14:56:40.459Z,1.52
2022-09-16T14:59:11.579Z,1.02
2022-09-16T15:01:38.178Z,5.70
2022-09-16T15:04:08.182Z,1.33
2022-09-16T15:06:39.115Z,2.72
2022-09-16T15:09:12.822Z,4.63
2022-09-16T15:11:48.418Z,1.45
2022-09-16T15:14:16.475Z,0.70
2022-09-16T15:16:46.970Z,2.00
2022-09-16T15:21:43.538Z,2.25
2022-09-16T15:24:18.097Z,2.20
2022-09-16T15:26:45.853Z,1.85
2022-09-16T15:29:18.581Z,0.77
2022-09-16T15:31:45.554Z,0.75
2022-09-16T15:34:21.457Z,1.83
2022-09-16T15:36:49.581Z,0.80
2022-09-16T15:39:38.577Z,0.75
2022-09-16T15:42:12.198Z,1.40
2022-09-16T15:44:52.454Z,0.77
2022-09-16T15:47:26.362Z,1.15
2022-09-16T15:50:02.869Z,1.38
2022-09-16T15:52:32.853Z,1.35
2022-09-16T15:55:01.368Z,0.70
2022-09-16T15:57:29.912Z,1.00
2022-09-16T16:00:11.956Z,4.40
2022-09-16T16:02:53.814Z,0.80
2022-09-16T16:05:22.450Z,1.02
2022-09-16T16:07:51.201Z,1.58
2022-09-16T16:10:30.964Z,1.85
2022-09-16T16:12:59.562Z,1.67
2022-09-16T16:15:28.436Z,0.90
2022-09-16T16:17:57.796Z,3.45
2022-09-16T16:20:24.521Z,0.77
2022-09-16T16:22:51.407Z,1.63
2022-09-16T16:25:18.793Z,1.35
2022-09-16T16:27:45.479Z,1.77
2022-09-16T16:30:12.465Z,0.82
2022-09-16T16:32:39.898Z,2.75
2022-09-16T16:35:06.841Z,1.52
2022-09-16T16:37:45.847Z,1.13
2022-09-16T16:40:14.001Z,3.42
2022-09-16T16:42:42.984Z,0.52
2022-09-16T16:45:10.731Z,3.63
2022-09-16T16:47:37.309Z,7.78
2022-09-16T16:50:04.133Z,0.95
2022-09-16T16:52:30.720Z,2.78
2022-09-16T16:54:57.306Z,1.55
2022-09-16T16:57:23.902Z,1.33
2022-09-16T16:59:51.771Z,1.00
2022-09-16T17:02:18.361Z,0.52
2022-09-16T17:04:45.073Z,1.15
2022-09-16T17:07:28.076Z,0.85
2022-09-16T17:09:56.994Z,0.68
2022-09-16T17:12:23.612Z,1.60
2022-09-16T17:14:50.174Z,3.05
2022-09-16T17:17:16.749Z,1.05
2022-09-16T17:19:43.314Z,1.13
2022-09-16T17:22:09.862Z,1.63
2022-09-16T17:24:37.464Z,3.53
2022-09-16T17:27:04.379Z,1.17
2022-09-16T17:29:30.973Z,2.95
2022-09-16T17:32:00.539Z,1.52
2022-09-16T17:34:27.359Z,2.20
2022-09-16T17:36:54.520Z,2.25
2022-09-16T17:39:21.361Z,2.58
2022-09-16T17:41:48.740Z,1.60
2022-09-16T17:44:15.730Z,2.38
2022-09-16T17:46:42.919Z,1.60
2022-09-16T17:49:22.856Z,2.05
2022-09-16T17:51:50.206Z,3.30
2022-09-16T17:54:17.013Z,15.43
2022-09-16T17:56:43.895Z,5.47
2022-09-16T17:59:11.164Z,3.80
2022-09-16T18:01:37.905Z,2.72
2022-09-16T18:04:04.589Z,2.20
2022-09-16T18:06:35.382Z,3.83
2022-09-16T18:09:03.249Z,2.50
2022-09-16T18:11:29.808Z,3.28
2022-09-16T18:13:58.072Z,1.75
2022-09-16T18:16:24.921Z,2.38
2022-09-16T18:18:52.916Z,1.05
2022-09-16T18:21:19.808Z,1.60
2022-09-16T18:23:49.537Z,1.35
2022-09-16T18:26:16.205Z,3.22
2022-09-16T18:29:19.619Z,1.67
2022-09-16T18:31:30.562Z,8.13
2022-09-16T18:33:57.170Z,3.92
2022-09-16T18:36:25.449Z,4.85
2022-09-16T18:38:56.976Z,9.35
2022-09-16T18:41:25.451Z,3.53
2022-09-16T18:43:53.933Z,3.15
2022-09-16T18:46:26.310Z,5.47
2022-09-16T18:48:53.551Z,2.85
2022-09-16T18:51:22.865Z,3.88
2022-09-16T18:53:50.918Z,2.10
2022-09-16T18:56:19.370Z,4.90
2022-09-16T18:59:03.651Z,3.05
2022-09-16T19:01:37.056Z,3.10
2022-09-16T19:04:05.145Z,2.80
2022-09-16T19:06:33.202Z,5.60
2022-09-16T19:09:00.185Z,3.92
2022-09-16T19:11:27.519Z,4.85
2022-09-16T19:13:54.401Z,7.40
2022-09-16T19:16:21.624Z,4.75
2022-09-16T19:18:54.617Z,4.22
2022-09-16T19:21:21.890Z,6.75
2022-09-16T19:24:07.721Z,7.68
2022-09-16T19:26:35.762Z,2.85
2022-09-16T19:29:02.616Z,5.50
2022-09-16T19:31:29.293Z,1.65
2022-09-16T19:33:56.281Z,4.43
2022-09-16T19:36:25.439Z,3.13
2022-09-16T19:38:52.311Z,5.25
2022-09-16T19:41:21.962Z,4.90
2022-09-16T19:43:52.627Z,5.20
2022-09-16T19:46:19.288Z,2.53
2022-09-16T19:48:48.095Z,5.47
2022-09-16T19:51:16.254Z,3.85
2022-09-16T19:53:45.044Z,5.05
2022-09-16T19:56:13.151Z,4.45
2022-09-16T19:58:42.887Z,5.63
2022-09-16T20:01:14.957Z,6.43
2022-09-16T20:03:43.762Z,4.50
2022-09-16T20:06:15.560Z,7.35
2022-09-16T20:08:42.945Z,2.97
2022-09-16T20:11:11.926Z,3.50
2022-09-16T20:13:38.983Z,20.98
2022-09-16T20:16:07.518Z,7.60
2022-09-16T20:18:34.813Z,5.70
2022-09-16T20:21:06.061Z,5.63
2022-09-16T20:23:33.632Z,5.25
2022-09-16T20:26:01.372Z,5.90
2022-09-16T20:28:41.984Z,7.32
2022-09-16T20:33:35.916Z,5.97
2022-09-16T20:36:09.897Z,4.82
2022-09-16T20:38:36.890Z,11.90
2022-09-16T20:41:07.770Z,5.85
2022-09-16T20:43:34.894Z,6.20
2022-09-16T20:46:09.117Z,7.05
2022-09-16T20:48:35.736Z,10.48
2022-09-16T20:51:12.977Z,4.40
2022-09-16T20:53:39.943Z,7.70
2022-09-16T20:56:16.176Z,5.55
2022-09-16T20:58:43.025Z,12.85
2022-09-16T21:01:17.567Z,11.10
2022-09-16T21:03:44.643Z,12.20
2022-09-16T21:06:13.414Z,8.35
2022-09-16T21:08:40.282Z,11.35
2022-09-16T21:11:11.539Z,8.07
2022-09-16T21:13:38.977Z,10.25
2022-09-16T21:16:05.840Z,10.68
2022-09-16T21:18:32.503Z,8.98
2022-09-16T21:21:16.600Z,11.48
2022-09-16T21:23:45.081Z,12.15
2022-09-16T21:26:19.200Z,11.85
2022-09-16T21:28:46.372Z,12.05
2022-09-16T21:31:14.316Z,15.45
2022-09-16T21:33:41.948Z,8.93
2022-09-16T21:36:11.550Z,10.88
2022-09-16T21:38:38.577Z,12.55
2022-09-16T21:41:27.076Z,7.72
2022-09-16T21:43:57.821Z,12.32
2022-09-16T21:46:29.202Z,12.57
2022-09-16T21:48:58.092Z,9.80
2022-09-16T21:51:24.932Z,10.98
2022-09-16T21:53:51.867Z,17.15
2022-09-16T21:56:20.525Z,10.00
2022-09-16T21:58:47.792Z,10.73
2022-09-16T22:01:19.111Z,9.85
2022-09-16T22:03:47.403Z,18.70
2022-09-16T22:06:15.114Z,17.67
2022-09-16T22:08:48.783Z,15.93
2022-09-16T22:11:17.206Z,12.75
2022-09-16T22:13:43.790Z,11.75
2022-09-16T22:16:14.932Z,13.43
2022-09-16T22:18:41.633Z,13.27
2022-09-16T22:21:09.766Z,13.77
2022-09-16T22:23:37.299Z,12.07
2022-09-16T22:26:07.466Z,17.75
2022-09-16T22:28:35.114Z,15.50
2022-09-16T22:31:15.694Z,16.63
2022-09-16T22:36:11.302Z,16.48
2022-09-16T22:38:37.938Z,14.13
2022-09-16T22:41:08.676Z,15.27
2022-09-16T22:43:36.256Z,14.25
2022-09-16T22:46:07.359Z,14.30
2022-09-16T22:48:34.144Z,12.07
2022-09-16T22:51:01.061Z,13.63
2022-09-16T22:53:28.005Z,14.40
2022-09-16T22:55:59.072Z,12.25
2022-09-16T22:58:26.044Z,16.13
2022-09-16T23:00:53.028Z,12.45
2022-09-16T23:03:20.017Z,12.35
2022-09-16T23:05:56.843Z,17.63
2022-09-16T23:08:24.060Z,19.88
2022-09-16T23:10:51.589Z,14.02
2022-09-16T23:13:18.529Z,14.48
2022-09-16T23:15:45.625Z,12.63
2022-09-16T23:18:12.594Z,13.25
2022-09-16T23:20:39.158Z,9.30
2022-09-16T23:23:05.954Z,12.98
2022-09-16T23:25:34.177Z,15.85
2022-09-16T23:28:00.808Z,15.30
2022-09-16T23:30:28.054Z,19.77
2022-09-16T23:32:54.617Z,15.10
2022-09-16T23:35:21.829Z,14.88
2022-09-16T23:37:49.301Z,13.88
2022-09-16T23:40:16.265Z,9.77
2022-09-16T23:42:42.903Z,13.55
2022-09-16T23:45:09.682Z,15.77
2022-09-16T23:47:36.441Z,14.63
2022-09-16T23:50:03.070Z,16.40
2022-09-16T23:52:29.655Z,15.90
2022-09-16T23:54:56.204Z,11.93
2022-09-16T23:57:22.857Z,13.55
2022-09-16T23:59:49.725Z,16.65
